sensor_id;sensor_type;location;lat;lon;timestamp;pressure;altitude;pressure_sealevel;temperature;humidity
36260;BME280;22296;50.824;5.644;2022-09-09T00:09:47;99940.50;;;24.70;49.88
36260;BME280;22296;50.824;5.644;2022-09-09T00:13:19;99940.53;;;24.66;50.14
36260;BME280;22296;50.824;5.644;2022-09-09T00:16:50;99937.31;;;24.68;49.80
36260;BME280;22296;50.824;5.644;2022-09-09T00:20:32;99932.88;;;24.67;49.75
36260;BME280;22296;50.824;5.644;2022-09-09T00:24:09;99929.25;;;24.63;49.87
36260;BME280;22296;50.824;5.644;2022-09-09T00:27:45;99928.03;;;24.64;49.73
36260;BME280;22296;50.824;5.644;2022-09-09T00:31:16;99925.22;;;24.71;49.62
36260;BME280;22296;50.824;5.644;2022-09-09T00:38:46;99925.63;;;24.66;49.57
36260;BME280;22296;50.824;5.644;2022-09-09T00:42:26;99921.19;;;24.65;49.87
36260;BME280;22296;50.824;5.644;2022-09-09T00:49:50;99919.19;;;24.58;50.00
36260;BME280;22296;50.824;5.644;2022-09-09T00:53:58;99920.78;;;24.63;49.54
36260;BME280;22296;50.824;5.644;2022-09-09T00:57:36;99920.44;;;24.47;50.68
36260;BME280;22296;50.824;5.644;2022-09-09T01:01:07;99914.81;;;24.54;50.53
36260;BME280;22296;50.824;5.644;2022-09-09T01:04:36;99915.63;;;24.47;49.91
36260;BME280;22296;50.824;5.644;2022-09-09T01:08:14;99923.25;;;24.54;50.15
36260;BME280;22296;50.824;5.644;2022-09-09T01:11:55;99914.81;;;24.54;49.62
36260;BME280;22296;50.824;5.644;2022-09-09T01:15:29;99914.00;;;24.53;49.49
36260;BME280;22296;50.824;5.644;2022-09-09T01:18:57;99920.44;;;24.54;49.52
36260;BME280;22296;50.824;5.644;2022-09-09T01:26:22;99920.44;;;24.47;49.40
36260;BME280;22296;50.824;5.644;2022-09-09T01:29:52;99917.63;;;24.43;49.95
36260;BME280;22296;50.824;5.644;2022-09-09T01:33:18;99921.25;;;24.40;49.95
36260;BME280;22296;50.824;5.644;2022-09-09T03:03:47;99894.72;;;24.27;50.85
36260;BME280;22296;50.824;5.644;2022-09-09T03:06:16;99901.19;;;24.20;51.10
36260;BME280;22296;50.824;5.644;2022-09-09T03:08:47;99894.72;;;24.30;50.97
36260;BME280;22296;50.824;5.644;2022-09-09T03:11:21;99894.31;;;24.35;50.90
36260;BME280;22296;50.824;5.644;2022-09-09T03:13:47;99894.69;;;24.45;50.08
36260;BME280;22296;50.824;5.644;2022-09-09T03:16:15;99897.47;;;24.52;49.81
36260;BME280;22296;50.824;5.644;2022-09-09T03:18:46;99890.19;;;24.58;49.92
36260;BME280;22296;50.824;5.644;2022-09-09T03:21:13;99902.28;;;24.58;49.87
36260;BME280;22296;50.824;5.644;2022-09-09T03:23:41;99893.00;;;24.65;49.45
36260;BME280;22296;50.824;5.644;2022-09-09T03:26:09;99888.13;;;24.69;49.58
36260;BME280;22296;50.824;5.644;2022-09-09T03:28:43;99881.75;;;24.61;49.52
36260;BME280;22296;50.824;5.644;2022-09-09T03:31:14;99884.94;;;24.67;49.63
36260;BME280;22296;50.824;5.644;2022-09-09T03:33:41;99875.22;;;24.75;49.48
36260;BME280;22296;50.824;5.644;2022-09-09T03:36:12;99881.69;;;24.72;49.36
36260;BME280;22296;50.824;5.644;2022-09-09T03:38:38;99886.13;;;24.69;49.14
36260;BME280;22296;50.824;5.644;2022-09-09T03:41:06;99885.75;;;24.71;48.85
36260;BME280;22296;50.824;5.644;2022-09-09T03:43:34;99889.31;;;24.75;49.19
36260;BME280;22296;50.824;5.644;2022-09-09T03:46:01;99890.13;;;24.75;49.15
36260;BME280;22296;50.824;5.644;2022-09-09T03:48:29;99889.31;;;24.75;49.28
36260;BME280;22296;50.824;5.644;2022-09-09T03:50:57;99886.50;;;24.78;48.70
36260;BME280;22296;50.824;5.644;2022-09-09T03:53:29;99886.94;;;24.73;48.77
36260;BME280;22296;50.824;5.644;2022-09-09T03:55:57;99882.50;;;24.65;49.13
36260;BME280;22296;50.824;5.644;2022-09-09T03:58:28;99885.75;;;24.64;48.84
36260;BME280;22296;50.824;5.644;2022-09-09T04:01:02;99884.50;;;24.75;48.97
36260;BME280;22296;50.824;5.644;2022-09-09T04:03:30;99888.97;;;24.66;48.70
36260;BME280;22296;50.824;5.644;2022-09-09T04:05:59;99893.78;;;24.69;48.67
36260;BME280;22296;50.824;5.644;2022-09-09T04:08:28;99892.16;;;24.75;48.48
36260;BME280;22296;50.824;5.644;2022-09-09T04:10:58;99882.47;;;24.76;48.57
36260;BME280;22296;50.824;5.644;2022-09-09T04:13:26;99885.69;;;24.74;48.62
36260;BME280;22296;50.824;5.644;2022-09-09T04:15:56;99888.94;;;24.76;48.55
36260;BME280;22296;50.824;5.644;2022-09-09T04:18:24;99886.13;;;24.73;48.44
36260;BME280;22296;50.824;5.644;2022-09-09T04:20:52;99877.66;;;24.69;48.54
36260;BME280;22296;50.824;5.644;2022-09-09T04:23:22;99876.06;;;24.68;48.87
36260;BME280;22296;50.824;5.644;2022-09-09T04:25:54;99868.03;;;24.63;48.59
36260;BME280;22296;50.824;5.644;2022-09-09T04:28:24;99871.22;;;24.69;48.30
36260;BME280;22296;50.824;5.644;2022-09-09T04:30:52;99879.69;;;24.65;48.58
36260;BME280;22296;50.824;5.644;2022-09-09T04:33:19;99871.22;;;24.65;48.61
36260;BME280;22296;50.824;5.644;2022-09-09T04:35:49;99865.13;;;24.77;48.55
36260;BME280;22296;50.824;5.644;2022-09-09T04:38:18;99870.41;;;24.68;48.46
36260;BME280;22296;50.824;5.644;2022-09-09T04:40:49;99878.53;;;24.56;48.46
36260;BME280;22296;50.824;5.644;2022-09-09T04:43:16;99872.91;;;24.49;48.49
36260;BME280;22296;50.824;5.644;2022-09-09T04:45:47;99872.13;;;24.45;48.58
36260;BME280;22296;50.824;5.644;2022-09-09T04:48:14;99873.72;;;24.46;48.44
36260;BME280;22296;50.824;5.644;2022-09-09T04:50:42;99881.00;;;24.39;48.47
36260;BME280;22296;50.824;5.644;2022-09-09T04:53:11;99875.34;;;24.47;48.41
36260;BME280;22296;50.824;5.644;2022-09-09T04:55:38;99878.97;;;24.40;48.58
36260;BME280;22296;50.824;5.644;2022-09-09T04:58:07;99880.19;;;24.43;47.92
36260;BME280;22296;50.824;5.644;2022-09-09T05:00:35;99875.34;;;24.39;48.04
36260;BME280;22296;50.824;5.644;2022-09-09T05:03:05;99885.84;;;24.39;47.99
36260;BME280;22296;50.824;5.644;2022-09-09T05:05:33;99882.59;;;24.41;48.21
36260;BME280;22296;50.824;5.644;2022-09-09T05:08:07;99885.47;;;24.23;48.14
36260;BME280;22296;50.824;5.644;2022-09-09T05:10:37;99883.47;;;24.23;48.22
36260;BME280;22296;50.824;5.644;2022-09-09T05:13:05;99890.31;;;24.19;48.35
36260;BME280;22296;50.824;5.644;2022-09-09T05:15:33;99891.94;;;24.16;48.67
36260;BME280;22296;50.824;5.644;2022-09-09T05:18:01;99882.69;;;24.16;48.38
36260;BME280;22296;50.824;5.644;2022-09-09T05:20:30;99884.31;;;24.13;48.55
36260;BME280;22296;50.824;5.644;2022-09-09T05:22:58;99893.13;;;24.08;48.49
36260;BME280;22296;50.824;5.644;2022-09-09T05:25:29;99885.50;;;24.12;48.41
36260;BME280;22296;50.824;5.644;2022-09-09T05:27:56;99893.91;;;24.09;48.98
36260;BME280;22296;50.824;5.644;2022-09-09T05:30:23;99891.91;;;24.02;48.84
36260;BME280;22296;50.824;5.644;2022-09-09T05:32:51;99881.88;;;24.01;49.25
36260;BME280;22296;50.824;5.644;2022-09-09T05:35:18;99883.50;;;23.99;49.25
36260;BME280;22296;50.824;5.644;2022-09-09T05:37:45;99883.47;;;24.02;49.04
36260;BME280;22296;50.824;5.644;2022-09-09T05:40:13;99886.69;;;23.97;49.34
36260;BME280;22296;50.824;5.644;2022-09-09T05:42:40;99885.88;;;23.97;49.46
36260;BME280;22296;50.824;5.644;2022-09-09T05:45:08;99889.50;;;24.04;49.26
36260;BME280;22296;50.824;5.644;2022-09-09T05:47:36;99887.13;;;24.13;49.62
36260;BME280;22296;50.824;5.644;2022-09-09T06:59:54;99876.66;;;23.47;50.23
36260;BME280;22296;50.824;5.644;2022-09-09T07:02:21;99877.06;;;23.66;49.92
36260;BME280;22296;50.824;5.644;2022-09-09T07:04:48;99879.47;;;23.82;49.99
36260;BME280;22296;50.824;5.644;2022-09-09T07:07:17;99876.25;;;23.80;49.27
36260;BME280;22296;50.824;5.644;2022-09-09T07:09:44;99873.44;;;23.87;49.20
36260;BME280;22296;50.824;5.644;2022-09-09T07:12:12;99874.22;;;23.91;48.70
36260;BME280;22296;50.824;5.644;2022-09-09T07:14:46;99878.25;;;23.83;49.72
36260;BME280;22296;50.824;5.644;2022-09-09T07:17:13;99881.09;;;23.90;49.49
36260;BME280;22296;50.824;5.644;2022-09-09T07:19:41;99881.09;;;23.90;49.54
36260;BME280;22296;50.824;5.644;2022-09-09T07:22:08;99885.88;;;24.00;48.88
36260;BME280;22296;50.824;5.644;2022-09-09T07:24:35;99880.25;;;24.00;49.16
36260;BME280;22296;50.824;5.644;2022-09-09T07:27:03;99885.09;;;24.00;49.02
36260;BME280;22296;50.824;5.644;2022-09-09T07:29:32;99888.28;;;24.05;48.57
36260;BME280;22296;50.824;5.644;2022-09-09T07:31:59;99892.34;;;24.04;48.73
36260;BME280;22296;50.824;5.644;2022-09-09T07:34:31;99890.72;;;24.03;48.84
36260;BME280;22296;50.824;5.644;2022-09-09T07:36:58;99880.25;;;24.00;48.55
36260;BME280;22296;50.824;5.644;2022-09-09T07:39:25;99891.53;;;23.97;48.76
36260;BME280;22296;50.824;5.644;2022-09-09T07:41:53;99889.94;;;23.92;48.64
36260;BME280;22296;50.824;5.644;2022-09-09T07:44:23;99887.13;;;23.78;48.78
36260;BME280;22296;50.824;5.644;2022-09-09T07:47:01;99897.97;;;23.90;48.42
36260;BME280;22296;50.824;5.644;2022-09-09T07:49:34;99892.34;;;23.87;48.48
36260;BME280;22296;50.824;5.644;2022-09-09T07:52:03;99891.16;;;23.84;48.40
36260;BME280;22296;50.824;5.644;2022-09-09T07:54:32;99890.34;;;23.80;48.75
36260;BME280;22296;50.824;5.644;2022-09-09T07:57:02;99891.13;;;23.77;48.32
36260;BME280;22296;50.824;5.644;2022-09-09T07:59:32;99893.16;;;23.80;48.27
36260;BME280;22296;50.824;5.644;2022-09-09T08:02:01;99897.19;;;23.79;48.37
36260;BME280;22296;50.824;5.644;2022-09-09T08:04:31;99897.19;;;23.79;48.31
36260;BME280;22296;50.824;5.644;2022-09-09T08:06:59;99892.75;;;23.74;48.67
36260;BME280;22296;50.824;5.644;2022-09-09T08:09:30;99892.75;;;23.78;48.19
36260;BME280;22296;50.824;5.644;2022-09-09T08:12:19;99895.56;;;23.78;48.37
36260;BME280;22296;50.824;5.644;2022-09-09T08:14:46;99890.75;;;23.71;48.66
36260;BME280;22296;50.824;5.644;2022-09-09T08:17:13;99888.34;;;23.70;48.64
36260;BME280;22296;50.824;5.644;2022-09-09T08:19:41;99894.78;;;23.67;48.34
36260;BME280;22296;50.824;5.644;2022-09-09T08:22:12;99890.72;;;23.68;48.18
36260;BME280;22296;50.824;5.644;2022-09-09T08:24:39;99889.53;;;23.62;48.38
36260;BME280;22296;50.824;5.644;2022-09-09T08:27:08;99895.56;;;23.60;48.57
36260;BME280;22296;50.824;5.644;2022-09-09T08:29:37;99895.97;;;23.66;50.09
36260;BME280;22296;50.824;5.644;2022-09-09T08:32:05;99896.38;;;23.71;50.08
36260;BME280;22296;50.824;5.644;2022-09-09T08:34:32;99893.56;;;23.61;50.53
36260;BME280;22296;50.824;5.644;2022-09-09T08:37:04;99905.22;;;23.77;50.11
36260;BME280;22296;50.824;5.644;2022-09-09T08:39:36;99897.19;;;23.79;49.33
36260;BME280;22296;50.824;5.644;2022-09-09T08:42:43;99899.59;;;23.84;49.37
36260;BME280;22296;50.824;5.644;2022-09-09T08:45:33;99906.84;;;23.96;48.56
36260;BME280;22296;50.824;5.644;2022-09-09T08:50:40;99907.63;;;23.82;48.20
36260;BME280;22296;50.824;5.644;2022-09-09T08:53:22;99914.88;;;23.72;48.55
36260;BME280;22296;50.824;5.644;2022-09-09T08:55:58;99914.09;;;23.79;48.68
36260;BME280;22296;50.824;5.644;2022-09-09T08:58:54;99905.63;;;23.72;48.39
36260;BME280;22296;50.824;5.644;2022-09-09T09:05:06;99913.25;;;23.71;48.12
36260;BME280;22296;50.824;5.644;2022-09-09T09:07:50;99916.47;;;23.66;47.97
36260;BME280;22296;50.824;5.644;2022-09-09T09:13:20;99916.47;;;23.73;48.13
36260;BME280;22296;50.824;5.644;2022-09-09T09:16:00;99925.34;;;23.72;48.08
36260;BME280;22296;50.824;5.644;2022-09-09T09:18:28;99921.31;;;23.66;47.91
36260;BME280;22296;50.824;5.644;2022-09-09T09:23:43;99931.38;;;23.67;47.68
36260;BME280;22296;50.824;5.644;2022-09-09T09:26:12;99923.72;;;23.64;47.97
36260;BME280;22296;50.824;5.644;2022-09-09T09:28:40;99923.72;;;23.50;48.24
36260;BME280;22296;50.824;5.644;2022-09-09T09:31:13;99926.13;;;23.55;48.21
36260;BME280;22296;50.824;5.644;2022-09-09T09:33:48;99938.97;;;23.59;47.71
36260;BME280;22296;50.824;5.644;2022-09-09T09:36:18;99935.00;;;23.64;48.00
36260;BME280;22296;50.824;5.644;2022-09-09T09:38:54;99950.25;;;23.42;47.83
36260;BME280;22296;50.824;5.644;2022-09-09T09:41:43;99945.41;;;23.46;48.04
36260;BME280;22296;50.824;5.644;2022-09-09T09:47:04;99934.94;;;23.43;48.36
36260;BME280;22296;50.824;5.644;2022-09-09T09:49:31;99938.19;;;23.55;48.03
36260;BME280;22296;50.824;5.644;2022-09-09T09:52:06;99931.34;;;23.60;48.04
36260;BME280;22296;50.824;5.644;2022-09-09T09:54:39;99928.53;;;23.60;48.06
36260;BME280;22296;50.824;5.644;2022-09-09T09:57:10;99940.59;;;23.57;48.27
36260;BME280;22296;50.824;5.644;2022-09-09T09:59:40;99934.16;;;23.60;48.00
36260;BME280;22296;50.824;5.644;2022-09-09T10:02:24;99932.56;;;23.59;48.34
36260;BME280;22296;50.824;5.644;2022-09-09T10:05:08;99930.13;;;23.54;48.30
36260;BME280;22296;50.824;5.644;2022-09-09T10:07:41;99930.94;;;23.44;48.49
36260;BME280;22296;50.824;5.644;2022-09-09T10:10:15;99923.28;;;23.41;48.73
36260;BME280;22296;50.824;5.644;2022-09-09T10:18:44;99934.97;;;23.57;48.68
36260;BME280;22296;50.824;5.644;2022-09-09T10:27:18;99940.63;;;23.78;48.02
36260;BME280;22296;50.824;5.644;2022-09-09T10:30:06;99936.59;;;23.93;47.55
36260;BME280;22296;50.824;5.644;2022-09-09T10:38:16;99937.38;;;23.65;47.90
36260;BME280;22296;50.824;5.644;2022-09-09T10:41:00;99941.03;;;23.59;47.96
36260;BME280;22296;50.824;5.644;2022-09-09T10:52:14;99940.59;;;23.71;48.07
36260;BME280;22296;50.824;5.644;2022-09-09T10:54:57;99939.81;;;23.67;47.86
36260;BME280;22296;50.824;5.644;2022-09-09T11:00:35;99942.63;;;23.70;47.96
36260;BME280;22296;50.824;5.644;2022-09-09T11:03:04;99936.59;;;23.61;48.38
36260;BME280;22296;50.824;5.644;2022-09-09T11:05:42;99945.44;;;23.53;48.70
36260;BME280;22296;50.824;5.644;2022-09-09T11:08:16;99943.81;;;23.55;48.71
36260;BME280;22296;50.824;5.644;2022-09-09T11:13:21;99939.00;;;23.56;48.59
36260;BME280;22296;50.824;5.644;2022-09-09T11:15:58;99935.78;;;23.57;48.43
36260;BME280;22296;50.824;5.644;2022-09-09T11:18:29;99944.22;;;23.54;49.12
36260;BME280;22296;50.824;5.644;2022-09-09T11:20:59;99955.88;;;23.42;49.31
36260;BME280;22296;50.824;5.644;2022-09-09T11:23:40;99953.84;;;23.46;49.22
36260;BME280;22296;50.824;5.644;2022-09-09T11:26:20;99945.81;;;23.55;50.14
36260;BME280;22296;50.824;5.644;2022-09-09T11:31:43;99944.63;;;23.91;49.51
36260;BME280;22296;50.824;5.644;2022-09-09T11:42:20;99948.25;;;24.06;49.40
36260;BME280;22296;50.824;5.644;2022-09-09T11:44:47;99942.22;;;24.00;49.15
36260;BME280;22296;50.824;5.644;2022-09-09T11:47:26;99939.00;;;23.98;48.83
36260;BME280;22296;50.824;5.644;2022-09-09T11:52:41;99932.97;;;24.14;48.61
36260;BME280;22296;50.824;5.644;2022-09-09T11:55:25;99931.78;;;24.18;48.63
36260;BME280;22296;50.824;5.644;2022-09-09T11:58:05;99928.16;;;24.14;48.74
36260;BME280;22296;50.824;5.644;2022-09-09T12:00:43;99931.75;;;23.97;48.69
36260;BME280;22296;50.824;5.644;2022-09-09T12:03:44;99936.59;;;23.79;49.32
36260;BME280;22296;50.824;5.644;2022-09-09T12:06:46;99934.97;;;23.74;49.29
36260;BME280;22296;50.824;5.644;2022-09-09T12:11:49;99930.16;;;23.75;48.98
36260;BME280;22296;50.824;5.644;2022-09-09T12:19:42;99936.59;;;23.79;48.76
36260;BME280;22296;50.824;5.644;2022-09-09T12:25:21;99929.34;;;23.99;48.40
36260;BME280;22296;50.824;5.644;2022-09-09T12:33:48;99935.00;;;23.67;48.75
36260;BME280;22296;50.824;5.644;2022-09-09T12:36:24;99938.19;;;23.52;49.37
36260;BME280;22296;50.824;5.644;2022-09-09T12:38:55;99934.97;;;23.57;49.13
36260;BME280;22296;50.824;5.644;2022-09-09T12:41:26;99925.34;;;23.61;49.17
36260;BME280;22296;50.824;5.644;2022-09-09T12:44:06;99932.56;;;23.66;48.85
36260;BME280;22296;50.824;5.644;2022-09-09T12:46:40;99916.88;;;23.61;49.07
36260;BME280;22296;50.824;5.644;2022-09-09T12:51:57;99905.22;;;23.49;49.55
36260;BME280;22296;50.824;5.644;2022-09-09T12:54:25;99907.63;;;23.54;49.35
36260;BME280;22296;50.824;5.644;2022-09-09T12:56:52;99907.25;;;23.59;49.18
36260;BME280;22296;50.824;5.644;2022-09-09T12:59:24;99900.41;;;23.67;48.99
36260;BME280;22296;50.824;5.644;2022-09-09T13:01:58;99888.72;;;23.65;49.19
36260;BME280;22296;50.824;5.644;2022-09-09T13:04:25;99889.13;;;23.67;49.11
36260;BME280;22296;50.824;5.644;2022-09-09T13:06:52;99895.16;;;23.69;50.36
36260;BME280;22296;50.824;5.644;2022-09-09T13:09:19;99908.03;;;23.77;50.04
36260;BME280;22296;50.824;5.644;2022-09-09T13:11:52;99913.25;;;23.54;50.19
36260;BME280;22296;50.824;5.644;2022-09-09T13:14:29;99913.66;;;23.56;50.96
36260;BME280;22296;50.824;5.644;2022-09-09T13:17:01;99924.50;;;23.47;49.99
36260;BME280;22296;50.824;5.644;2022-09-09T13:19:33;99920.13;;;23.70;49.74
36260;BME280;22296;50.824;5.644;2022-09-09T13:22:18;99908.44;;;23.72;49.21
36260;BME280;22296;50.824;5.644;2022-09-09T13:24:46;99909.63;;;23.85;49.15
36260;BME280;22296;50.824;5.644;2022-09-09T13:27:28;99909.63;;;23.92;49.00
36260;BME280;22296;50.824;5.644;2022-09-09T13:29:56;99901.22;;;23.64;49.82
36260;BME280;22296;50.824;5.644;2022-09-09T13:32:24;99891.53;;;23.68;49.37
36260;BME280;22296;50.824;5.644;2022-09-09T13:35:01;99888.31;;;23.80;49.63
36260;BME280;22296;50.824;5.644;2022-09-09T13:37:36;99887.53;;;23.87;49.72
36260;BME280;22296;50.824;5.644;2022-09-09T13:40:05;99895.16;;;24.01;48.84
36260;BME280;22296;50.824;5.644;2022-09-09T13:42:37;99889.91;;;24.06;49.22
36260;BME280;22296;50.824;5.644;2022-09-09T13:45:14;99887.50;;;24.05;48.82
36260;BME280;22296;50.824;5.644;2022-09-09T13:47:43;99889.13;;;23.85;49.43
36260;BME280;22296;50.824;5.644;2022-09-09T13:50:26;99873.03;;;23.96;48.72
36260;BME280;22296;50.824;5.644;2022-09-09T13:52:55;99889.13;;;23.88;48.72
36260;BME280;22296;50.824;5.644;2022-09-09T13:55:24;99892.75;;;24.10;48.42
36260;BME280;22296;50.824;5.644;2022-09-09T13:57:53;99893.53;;;23.82;48.39
36260;BME280;22296;50.824;5.644;2022-09-09T14:00:20;99893.16;;;23.62;48.59
36260;BME280;22296;50.824;5.644;2022-09-09T14:02:48;99896.34;;;23.82;48.46
36260;BME280;22296;50.824;5.644;2022-09-09T14:05:18;99889.91;;;23.85;48.47
36260;BME280;22296;50.824;5.644;2022-09-09T14:07:46;99885.09;;;23.82;48.46
36260;BME280;22296;50.824;5.644;2022-09-09T14:10:18;99899.59;;;23.98;47.66
36260;BME280;22296;50.824;5.644;2022-09-09T14:12:45;99895.16;;;23.97;47.72
36260;BME280;22296;50.824;5.644;2022-09-09T14:15:13;99890.75;;;23.78;48.55
36260;BME280;22296;50.824;5.644;2022-09-09T14:17:41;99892.38;;;23.76;48.20
36260;BME280;22296;50.824;5.644;2022-09-09T14:20:08;99891.97;;;23.70;48.74
36260;BME280;22296;50.824;5.644;2022-09-09T14:22:36;99889.13;;;23.74;48.40
36260;BME280;22296;50.824;5.644;2022-09-09T14:25:03;99888.72;;;23.58;48.51
36260;BME280;22296;50.824;5.644;2022-09-09T14:27:30;99889.53;;;23.72;48.24
36260;BME280;22296;50.824;5.644;2022-09-09T14:29:57;99885.53;;;23.88;48.29
36260;BME280;22296;50.824;5.644;2022-09-09T14:32:24;99893.13;;;23.94;47.95
36260;BME280;22296;50.824;5.644;2022-09-09T14:34:51;99882.69;;;23.88;47.95
36260;BME280;22296;50.824;5.644;2022-09-09T14:37:18;99888.31;;;23.91;48.32
36260;BME280;22296;50.824;5.644;2022-09-09T14:39:45;99885.88;;;23.97;48.06
36260;BME280;22296;50.824;5.644;2022-09-09T14:42:14;99887.09;;;24.06;48.48
36260;BME280;22296;50.824;5.644;2022-09-09T14:44:40;99889.91;;;23.99;48.53
36260;BME280;22296;50.824;5.644;2022-09-09T14:47:08;99888.31;;;23.98;49.05
36260;BME280;22296;50.824;5.644;2022-09-09T14:49:35;99881.06;;;24.11;48.67
36260;BME280;22296;50.824;5.644;2022-09-09T14:52:03;99884.28;;;24.17;48.03
36260;BME280;22296;50.824;5.644;2022-09-09T14:54:31;99881.47;;;23.85;48.60
36260;BME280;22296;50.824;5.644;2022-09-09T14:56:58;99884.28;;;23.92;48.14
36260;BME280;22296;50.824;5.644;2022-09-09T14:59:25;99898.38;;;23.78;48.51
36260;BME280;22296;50.824;5.644;2022-09-09T15:01:52;99890.34;;;23.66;48.20
36260;BME280;22296;50.824;5.644;2022-09-09T15:04:19;99895.16;;;23.65;47.98
36260;BME280;22296;50.824;5.644;2022-09-09T15:06:46;99903.22;;;23.81;47.97
36260;BME280;22296;50.824;5.644;2022-09-09T15:09:15;99895.56;;;23.57;48.07
36260;BME280;22296;50.824;5.644;2022-09-09T15:11:42;99896.34;;;23.68;47.91
36260;BME280;22296;50.824;5.644;2022-09-09T15:14:09;99895.59;;;23.67;48.09
36260;BME280;22296;50.824;5.644;2022-09-09T15:16:39;99889.13;;;23.63;48.15
36260;BME280;22296;50.824;5.644;2022-09-09T15:19:06;99898.78;;;23.69;47.60
36260;BME280;22296;50.824;5.644;2022-09-09T15:21:35;99891.53;;;23.68;47.88
36260;BME280;22296;50.824;5.644;2022-09-09T15:24:02;99897.56;;;23.74;47.57
36260;BME280;22296;50.824;5.644;2022-09-09T15:26:30;99904.81;;;23.75;47.95
36260;BME280;22296;50.824;5.644;2022-09-09T15:28:57;99894.75;;;23.92;47.71
36260;BME280;22296;50.824;5.644;2022-09-09T15:32:07;99906.00;;;23.88;48.16
36260;BME280;22296;50.824;5.644;2022-09-09T15:35:14;99901.63;;;23.59;48.38
36260;BME280;22296;50.824;5.644;2022-09-09T15:38:21;99891.94;;;23.46;48.75
36260;BME280;22296;50.824;5.644;2022-09-09T15:41:27;99891.53;;;23.51;49.05
36260;BME280;22296;50.824;5.644;2022-09-09T15:44:41;99892.34;;;23.58;48.84
36260;BME280;22296;50.824;5.644;2022-09-09T15:47:48;99897.97;;;23.65;48.52
36260;BME280;22296;50.824;5.644;2022-09-09T15:51:04;99906.41;;;23.48;48.79
36260;BME280;22296;50.824;5.644;2022-09-09T15:54:12;99907.19;;;23.45;48.95
36260;BME280;22296;50.824;5.644;2022-09-09T15:57:18;99901.13;;;23.25;49.42
36260;BME280;22296;50.824;5.644;2022-09-09T16:00:23;99909.19;;;23.37;49.25
36260;BME280;22296;50.824;5.644;2022-09-09T16:03:33;99912.44;;;23.53;48.93
36260;BME280;22296;50.824;5.644;2022-09-09T16:06:39;99908.41;;;23.65;49.06
36260;BME280;22296;50.824;5.644;2022-09-09T16:09:45;99903.19;;;23.74;49.03
36260;BME280;22296;50.824;5.644;2022-09-09T16:12:50;99909.25;;;23.83;49.28
36260;BME280;22296;50.824;5.644;2022-09-09T16:15:56;99907.63;;;24.03;48.66
36260;BME280;22296;50.824;5.644;2022-09-09T16:18:24;99916.47;;;24.05;48.47
36260;BME280;22296;50.824;5.644;2022-09-09T16:20:54;99917.69;;;24.15;48.80
36260;BME280;22296;50.824;5.644;2022-09-09T16:23:21;99924.56;;;24.10;48.81
36260;BME280;22296;50.824;5.644;2022-09-09T16:25:54;99930.56;;;23.98;49.05
36260;BME280;22296;50.824;5.644;2022-09-09T16:28:21;99926.94;;;23.83;48.99
36260;BME280;22296;50.824;5.644;2022-09-09T16:30:49;99922.91;;;23.74;49.19
36260;BME280;22296;50.824;5.644;2022-09-09T16:33:16;99924.91;;;23.73;49.57
36260;BME280;22296;50.824;5.644;2022-09-09T16:35:43;99918.91;;;23.75;49.20
36260;BME280;22296;50.824;5.644;2022-09-09T16:38:11;99921.72;;;23.89;49.77
36260;BME280;22296;50.824;5.644;2022-09-09T16:40:38;99930.97;;;24.07;50.02
36260;BME280;22296;50.824;5.644;2022-09-09T16:43:07;99930.56;;;24.26;48.90
36260;BME280;22296;50.824;5.644;2022-09-09T16:45:44;99937.38;;;24.25;49.59
36260;BME280;22296;50.824;5.644;2022-09-09T16:48:12;99941.41;;;24.31;49.42
36260;BME280;22296;50.824;5.644;2022-09-09T16:50:38;99947.03;;;24.31;49.87
36260;BME280;22296;50.824;5.644;2022-09-09T16:53:06;99949.88;;;24.42;49.60
36260;BME280;22296;50.824;5.644;2022-09-09T16:55:41;99950.25;;;24.48;49.37
36260;BME280;22296;50.824;5.644;2022-09-09T16:58:10;99957.50;;;24.42;49.68
36260;BME280;22296;50.824;5.644;2022-09-09T17:00:37;99964.72;;;24.43;49.77
36260;BME280;22296;50.824;5.644;2022-09-09T17:03:03;99967.56;;;24.43;49.93
36260;BME280;22296;50.824;5.644;2022-09-09T17:05:30;99972.81;;;24.44;49.80
36260;BME280;22296;50.824;5.644;2022-09-09T17:07:59;99976.81;;;24.47;49.63
36260;BME280;22296;50.824;5.644;2022-09-09T17:10:25;99978.41;;;24.55;49.49
36260;BME280;22296;50.824;5.644;2022-09-09T17:12:52;99977.22;;;24.56;49.39
36260;BME280;22296;50.824;5.644;2022-09-09T17:15:19;99974.38;;;24.49;49.37
36260;BME280;22296;50.824;5.644;2022-09-09T17:17:47;99978.03;;;24.46;49.45
36260;BME280;22296;50.824;5.644;2022-09-09T17:20:15;99975.22;;;24.38;49.68
36260;BME280;22296;50.824;5.644;2022-09-09T17:22:43;99976.00;;;24.50;49.05
36260;BME280;22296;50.824;5.644;2022-09-09T17:25:09;99976.81;;;24.47;49.21
36260;BME280;22296;50.824;5.644;2022-09-09T17:27:36;99982.47;;;24.32;48.97
36260;BME280;22296;50.824;5.644;2022-09-09T17:30:04;99982.91;;;24.27;49.26
36260;BME280;22296;50.824;5.644;2022-09-09T17:32:30;99988.13;;;24.29;48.97
36260;BME280;22296;50.824;5.644;2022-09-09T17:34:57;99993.75;;;24.25;49.08
36260;BME280;22296;50.824;5.644;2022-09-09T17:37:24;99989.31;;;24.28;48.74
36260;BME280;22296;50.824;5.644;2022-09-09T17:39:50;99989.34;;;24.24;49.23
36260;BME280;22296;50.824;5.644;2022-09-09T17:42:17;99991.75;;;24.15;48.92
36260;BME280;22296;50.824;5.644;2022-09-09T17:44:44;99999.41;;;24.18;48.83
36260;BME280;22296;50.824;5.644;2022-09-09T17:47:11;100003.41;;;24.14;49.06
36260;BME280;22296;50.824;5.644;2022-09-09T17:49:38;99996.16;;;24.09;49.01
36260;BME280;22296;50.824;5.644;2022-09-09T17:52:04;99996.19;;;24.16;49.09
36260;BME280;22296;50.824;5.644;2022-09-09T17:54:32;100011.47;;;24.19;49.04
36260;BME280;22296;50.824;5.644;2022-09-09T17:57:00;100008.66;;;24.15;48.63
36260;BME280;22296;50.824;5.644;2022-09-09T17:59:27;100003.44;;;24.21;48.74
36260;BME280;22296;50.824;5.644;2022-09-09T18:01:53;100013.88;;;24.42;48.64
36260;BME280;22296;50.824;5.644;2022-09-09T18:04:21;100011.44;;;24.36;48.35
36260;BME280;22296;50.824;5.644;2022-09-09T18:06:50;100010.28;;;24.16;49.05